createdAt,value
2023-01-18T00:00:33.046Z,26.00
2023-01-18T00:03:00.943Z,26.00
2023-01-18T00:05:28.661Z,26.00
2023-01-18T00:07:56.413Z,26.00
2023-01-18T00:10:24.594Z,26.00
2023-01-18T00:12:52.234Z,26.00
2023-01-18T00:15:21.237Z,25.90
2023-01-18T00:17:51.609Z,25.90
2023-01-18T00:20:20.962Z,25.90
2023-01-18T00:22:48.642Z,25.90
2023-01-18T00:25:16.611Z,25.90
2023-01-18T00:27:47.405Z,25.90
2023-01-18T00:30:17.389Z,25.80
2023-01-18T00:32:46.370Z,25.80
2023-01-18T00:35:15.440Z,25.80
2023-01-18T00:37:43.395Z,25.80
2023-01-18T00:40:11.951Z,25.80
2023-01-18T00:42:57.518Z,25.70
2023-01-18T00:45:25.443Z,25.70
2023-01-18T00:47:54.480Z,25.70
2023-01-18T00:50:22.534Z,25.70
2023-01-18T00:52:51.150Z,25.70
2023-01-18T00:55:18.779Z,25.60
2023-01-18T00:57:46.397Z,25.60
2023-01-18T01:00:15.580Z,25.60
2023-01-18T01:02:43.925Z,25.60
2023-01-18T01:05:35.342Z,25.60
2023-01-18T01:08:03.229Z,25.60
2023-01-18T01:10:31.047Z,25.50
2023-01-18T01:13:16.297Z,25.50
2023-01-18T01:16:01.584Z,25.50
2023-01-18T01:18:46.695Z,25.50
2023-01-18T01:21:33.204Z,25.40
2023-01-18T01:24:18.524Z,25.40
2023-01-18T01:26:46.134Z,25.40
2023-01-18T01:29:13.767Z,25.40
2023-01-18T01:31:41.382Z,25.40
2023-01-18T01:34:09.015Z,25.40
2023-01-18T01:36:38.135Z,25.40
2023-01-18T01:39:07.078Z,25.30
2023-01-18T01:41:35.973Z,25.30
2023-01-18T01:44:28.023Z,25.30
2023-01-18T01:46:58.392Z,25.30
2023-01-18T01:49:32.852Z,25.30
2023-01-18T01:52:05.282Z,25.30
2023-01-18T01:54:36.025Z,25.30
2023-01-18T01:57:11.033Z,25.30
2023-01-18T01:59:41.540Z,25.20
2023-01-18T02:02:10.490Z,25.20
2023-01-18T02:04:38.819Z,25.20
2023-01-18T02:07:07.820Z,25.20
2023-01-18T02:09:35.503Z,25.20
2023-01-18T02:12:03.284Z,25.20
2023-01-18T02:14:31.910Z,25.10
2023-01-18T02:17:11.040Z,25.10
2023-01-18T02:20:04.702Z,25.10
2023-01-18T02:22:52.790Z,25.10
2023-01-18T02:25:45.729Z,25.10
2023-01-18T02:28:18.998Z,25.10
2023-01-18T02:30:52.180Z,25.00
2023-01-18T02:33:27.044Z,25.00
2023-01-18T02:35:57.698Z,25.00
2023-01-18T02:38:28.563Z,25.00
2023-01-18T02:41:10.042Z,25.00
2023-01-18T02:44:00.109Z,25.00
2023-01-18T02:46:33.944Z,25.00
2023-01-18T02:49:04.763Z,24.90
2023-01-18T02:51:32.514Z,25.00
2023-01-18T02:54:01.391Z,24.90
2023-01-18T02:56:33.812Z,24.90
2023-01-18T02:59:08.684Z,24.90
2023-01-18T03:01:40.582Z,24.90
2023-01-18T03:04:14.162Z,24.90
2023-01-18T03:06:46.044Z,24.90
2023-01-18T03:09:18.521Z,24.90
2023-01-18T03:11:56.063Z,24.90
2023-01-18T03:14:37.823Z,24.80
2023-01-18T03:17:11.699Z,24.80
2023-01-18T03:20:02.870Z,24.80
2023-01-18T03:22:51.156Z,24.80
2023-01-18T03:25:21.160Z,24.80
2023-01-18T03:28:09.060Z,24.80
2023-01-18T03:30:57.457Z,24.80
2023-01-18T03:33:45.980Z,24.70
2023-01-18T03:36:19.200Z,24.70
2023-01-18T03:38:51.246Z,24.70
2023-01-18T03:41:20.682Z,24.70
2023-01-18T03:43:50.701Z,24.70
2023-01-18T03:46:21.962Z,24.70
2023-01-18T03:48:49.723Z,24.80
2023-01-18T03:51:23.631Z,24.80
2023-01-18T03:53:59.099Z,24.70
2023-01-18T03:56:31.552Z,24.70
2023-01-18T03:59:04.203Z,24.70
2023-01-18T04:01:33.459Z,24.80
2023-01-18T04:04:01.400Z,24.80
2023-01-18T04:06:30.088Z,24.80
2023-01-18T04:08:57.870Z,24.80
2023-01-18T04:11:25.586Z,24.80
2023-01-18T04:13:54.505Z,24.80
2023-01-18T04:16:22.647Z,24.80
2023-01-18T04:18:52.688Z,24.80
2023-01-18T04:21:20.349Z,24.80
2023-01-18T04:23:47.972Z,24.80
2023-01-18T04:26:16.742Z,24.80
2023-01-18T04:28:44.543Z,24.80
2023-01-18T04:31:12.191Z,24.80
2023-01-18T04:33:39.889Z,24.80
2023-01-18T04:36:09.545Z,24.80
2023-01-18T04:38:37.376Z,24.80
2023-01-18T04:41:05.648Z,24.80
2023-01-18T04:43:33.326Z,24.80
2023-01-18T04:46:01.051Z,24.80
2023-01-18T04:48:28.848Z,24.80
2023-01-18T04:50:56.709Z,24.80
2023-01-18T04:53:25.802Z,24.80
2023-01-18T04:55:53.443Z,24.80
2023-01-18T04:58:21.052Z,24.80
2023-01-18T05:00:48.754Z,24.80
2023-01-18T05:03:16.555Z,24.80
2023-01-18T05:05:44.159Z,24.80
2023-01-18T05:08:11.775Z,24.80
2023-01-18T05:10:40.768Z,24.80
2023-01-18T05:13:08.386Z,24.70
2023-01-18T05:15:36.101Z,24.70
2023-01-18T05:18:03.765Z,24.70
2023-01-18T05:20:31.413Z,24.70
2023-01-18T05:22:59.332Z,24.70
2023-01-18T05:25:27.232Z,24.70
2023-01-18T05:27:56.175Z,24.70
2023-01-18T05:30:23.817Z,24.70
2023-01-18T05:32:51.468Z,24.70
2023-01-18T05:35:19.104Z,24.70
2023-01-18T05:37:46.724Z,24.70
2023-01-18T05:40:14.702Z,24.70
2023-01-18T05:42:42.299Z,24.70
2023-01-18T05:45:12.084Z,24.70
2023-01-18T05:47:41.150Z,24.70
2023-01-18T05:50:10.088Z,24.70
2023-01-18T05:52:37.730Z,24.70
2023-01-18T05:55:06.310Z,24.70
2023-01-18T05:57:33.924Z,24.70
2023-01-18T06:00:03.059Z,24.70
2023-01-18T06:02:34.638Z,24.70
2023-01-18T06:05:02.335Z,24.70
2023-01-18T06:07:29.951Z,24.70
2023-01-18T06:09:57.585Z,24.70
2023-01-18T06:12:25.179Z,24.70
2023-01-18T06:14:52.810Z,24.70
2023-01-18T06:17:20.444Z,24.70
2023-01-18T06:19:50.099Z,24.70
2023-01-18T06:22:17.714Z,24.70
2023-01-18T06:24:45.392Z,24.70
2023-01-18T06:27:13.062Z,24.70
2023-01-18T06:29:40.657Z,24.70
2023-01-18T06:32:08.330Z,24.70
2023-01-18T06:34:36.759Z,24.70
2023-01-18T06:37:05.910Z,24.60
2023-01-18T06:39:33.508Z,24.60
2023-01-18T06:42:01.144Z,24.70
2023-01-18T06:44:28.850Z,24.70
2023-01-18T06:46:56.496Z,24.70
2023-01-18T06:49:24.123Z,24.70
2023-01-18T06:51:51.752Z,24.70
2023-01-18T06:54:20.717Z,24.70
2023-01-18T06:56:48.808Z,24.70
2023-01-18T06:59:16.969Z,24.70
2023-01-18T07:01:44.895Z,24.70
2023-01-18T07:04:12.660Z,24.70
2023-01-18T07:06:40.377Z,24.70
2023-01-18T07:09:09.337Z,24.70
2023-01-18T07:11:41.671Z,24.70
2023-01-18T07:14:09.363Z,24.70
2023-01-18T07:16:37.104Z,24.70
2023-01-18T07:19:04.867Z,24.70
2023-01-18T07:21:33.038Z,24.70
2023-01-18T07:24:00.736Z,24.70
2023-01-18T07:26:28.371Z,24.80
2023-01-18T07:28:57.328Z,24.70
2023-01-18T07:31:25.218Z,24.80
2023-01-18T07:33:53.268Z,24.80
2023-01-18T07:36:22.208Z,24.80
2023-01-18T07:38:50.036Z,24.80
2023-01-18T07:41:18.458Z,24.80
2023-01-18T07:43:46.157Z,24.80
2023-01-18T07:46:18.529Z,24.80
2023-01-18T07:48:46.413Z,24.80
2023-01-18T07:51:14.078Z,24.80
2023-01-18T07:53:42.479Z,24.80
2023-01-18T07:56:13.711Z,24.80
2023-01-18T07:58:41.638Z,24.80
2023-01-18T08:01:12.254Z,24.80
2023-01-18T08:03:43.197Z,24.80
2023-01-18T08:06:13.483Z,24.80
2023-01-18T08:08:41.294Z,24.80
2023-01-18T08:11:09.288Z,24.80
2023-01-18T08:13:37.061Z,24.80
2023-01-18T08:16:06.537Z,24.90
2023-01-18T08:18:34.254Z,24.90
2023-01-18T08:21:03.209Z,24.90
2023-01-18T08:23:30.907Z,24.90
2023-01-18T08:26:01.956Z,24.90
2023-01-18T08:28:29.602Z,24.90
2023-01-18T08:31:07.734Z,24.90
2023-01-18T08:33:38.366Z,24.90
2023-01-18T08:36:11.256Z,24.90
2023-01-18T08:38:38.975Z,25.00
2023-01-18T08:41:06.833Z,25.00
2023-01-18T08:43:34.850Z,25.00
2023-01-18T08:46:02.580Z,25.00
2023-01-18T08:48:30.348Z,25.00
2023-01-18T08:51:02.284Z,25.00
2023-01-18T08:53:32.074Z,25.00
2023-01-18T08:55:59.861Z,25.00
2023-01-18T08:58:27.811Z,25.00
2023-01-18T09:00:56.389Z,25.10
2023-01-18T09:03:25.138Z,25.10
2023-01-18T09:05:52.769Z,25.10
2023-01-18T09:08:20.803Z,25.10
2023-01-18T09:10:49.752Z,25.10
2023-01-18T09:13:17.396Z,25.10
2023-01-18T09:15:46.920Z,25.10
2023-01-18T09:18:14.782Z,25.20
2023-01-18T09:20:43.507Z,25.20
2023-01-18T09:23:11.440Z,25.20
2023-01-18T09:25:41.096Z,25.20
2023-01-18T09:28:10.077Z,25.20
2023-01-18T09:30:37.711Z,25.20
2023-01-18T09:33:05.377Z,25.20
2023-01-18T09:35:33.184Z,25.30
2023-01-18T09:38:00.872Z,25.30
2023-01-18T09:40:42.689Z,25.30
2023-01-18T09:43:17.871Z,25.30
2023-01-18T09:45:48.211Z,25.30
2023-01-18T09:48:27.372Z,25.30
2023-01-18T09:50:55.197Z,25.30
2023-01-18T09:53:41.012Z,25.40
2023-01-18T09:56:16.931Z,25.40
2023-01-18T09:59:00.523Z,25.40
2023-01-18T10:01:33.067Z,25.40
2023-01-18T10:04:03.258Z,25.40
2023-01-18T10:06:36.162Z,25.40
2023-01-18T10:09:07.404Z,25.40
2023-01-18T10:11:44.875Z,25.40
2023-01-18T10:14:23.587Z,25.50
2023-01-18T10:16:57.472Z,25.50
2023-01-18T10:19:29.128Z,25.50
2023-01-18T10:22:05.357Z,25.50
2023-01-18T10:24:46.962Z,25.50
2023-01-18T10:27:29.580Z,25.50
2023-01-18T10:30:14.220Z,25.50
2023-01-18T10:32:52.783Z,25.50
2023-01-18T10:35:27.584Z,25.50
2023-01-18T10:37:57.949Z,25.50
2023-01-18T10:40:25.788Z,25.60
2023-01-18T10:42:56.648Z,25.60
2023-01-18T10:45:28.452Z,25.60
2023-01-18T10:47:58.582Z,25.60
2023-01-18T10:50:36.458Z,25.60
2023-01-18T10:53:25.417Z,25.60
2023-01-18T10:55:56.797Z,25.60
2023-01-18T10:58:27.528Z,25.60
2023-01-18T11:00:56.679Z,25.60
2023-01-18T11:03:26.232Z,25.60
2023-01-18T11:05:54.575Z,25.60
2023-01-18T11:08:25.110Z,25.60
2023-01-18T11:11:00.788Z,25.60
2023-01-18T11:13:32.238Z,25.60
2023-01-18T11:16:17.708Z,25.60
2023-01-18T11:19:04.707Z,25.60
2023-01-18T11:21:45.654Z,25.60
2023-01-18T11:24:17.400Z,25.60
2023-01-18T11:26:54.620Z,25.60
2023-01-18T11:29:24.157Z,25.60
2023-01-18T11:31:54.772Z,25.60
2023-01-18T11:34:29.461Z,25.70
2023-01-18T11:36:58.536Z,25.60
2023-01-18T11:39:29.418Z,25.70
2023-01-18T11:42:21.586Z,25.70
2023-01-18T11:45:12.611Z,25.60
2023-01-18T11:47:54.444Z,25.70
2023-01-18T11:50:29.322Z,25.60
2023-01-18T11:53:04.399Z,25.70
2023-01-18T11:55:36.125Z,25.70
2023-01-18T11:58:07.027Z,25.70
2023-01-18T12:00:46.738Z,25.70
2023-01-18T12:03:49.077Z,25.70
2023-01-18T12:06:27.263Z,25.70
2023-01-18T12:09:08.046Z,25.70
2023-01-18T12:11:45.871Z,25.70
2023-01-18T12:14:29.088Z,25.70
2023-01-18T12:17:10.783Z,25.70
2023-01-18T12:20:12.183Z,25.70
2023-01-18T12:23:04.298Z,25.70
2023-01-18T12:26:11.067Z,25.70
2023-01-18T12:28:52.311Z,25.70
2023-01-18T12:31:36.963Z,25.70
2023-01-18T12:34:10.721Z,25.70
2023-01-18T12:36:52.229Z,25.70
2023-01-18T12:39:34.996Z,25.70
2023-01-18T12:42:06.343Z,25.70
2023-01-18T12:44:49.615Z,25.70
2023-01-18T12:47:32.784Z,25.70
2023-01-18T12:50:00.977Z,25.70
2023-01-18T12:52:33.477Z,25.70
2023-01-18T12:55:07.007Z,25.70
2023-01-18T12:57:35.496Z,25.70
2023-01-18T13:00:09.260Z,25.70
2023-01-18T13:02:41.557Z,25.70
2023-01-18T13:05:19.196Z,25.70
2023-01-18T13:07:52.536Z,25.70
2023-01-18T13:10:23.400Z,25.70
2023-01-18T13:12:52.976Z,25.70
2023-01-18T13:15:28.884Z,25.70
2023-01-18T13:18:03.820Z,25.80
2023-01-18T13:20:42.281Z,25.80
2023-01-18T13:23:23.673Z,25.80
2023-01-18T13:25:54.418Z,25.80
2023-01-18T13:28:24.098Z,25.80
2023-01-18T13:30:56.426Z,25.80
2023-01-18T13:33:27.066Z,25.80
2023-01-18T13:35:57.107Z,25.80
2023-01-18T13:38:40.721Z,25.80
2023-01-18T13:41:11.615Z,25.80
2023-01-18T13:44:05.059Z,25.80
2023-01-18T13:46:35.356Z,25.80
2023-01-18T13:49:37.768Z,25.80
2023-01-18T13:52:30.355Z,25.80
2023-01-18T13:55:24.941Z,25.80
2023-01-18T13:57:55.573Z,25.80
2023-01-18T14:00:25.492Z,25.80
2023-01-18T14:02:56.705Z,25.80
2023-01-18T14:05:27.159Z,25.80
2023-01-18T14:07:58.356Z,25.90
2023-01-18T14:10:31.709Z,25.90
2023-01-18T14:13:01.786Z,25.90
2023-01-18T14:15:52.434Z,25.90
2023-01-18T14:18:25.683Z,25.90
2023-01-18T14:21:04.359Z,25.90
2023-01-18T14:23:51.316Z,25.80
2023-01-18T14:26:22.394Z,25.80
2023-01-18T14:28:53.210Z,25.80
2023-01-18T14:31:25.744Z,25.80
2023-01-18T14:33:53.651Z,25.80
2023-01-18T14:36:23.217Z,25.80
2023-01-18T14:39:12.777Z,25.80
2023-01-18T14:41:44.241Z,25.80
2023-01-18T14:44:17.802Z,25.80
2023-01-18T14:46:50.752Z,25.80
2023-01-18T14:49:24.736Z,25.80
2023-01-18T14:51:53.902Z,25.80
2023-01-18T14:54:24.360Z,25.80
2023-01-18T14:57:01.486Z,25.70
2023-01-18T14:59:31.129Z,25.70
2023-01-18T15:02:00.884Z,25.70
2023-01-18T15:04:31.010Z,25.70
2023-01-18T15:07:03.653Z,25.70
2023-01-18T15:09:33.750Z,25.70
2023-01-18T15:12:07.602Z,25.70
2023-01-18T15:14:38.123Z,25.70
2023-01-18T15:17:09.392Z,25.70
2023-01-18T15:19:41.363Z,25.70
2023-01-18T15:22:13.126Z,25.70
2023-01-18T15:24:42.820Z,25.70
2023-01-18T15:27:15.317Z,25.70
2023-01-18T15:29:48.506Z,25.70
2023-01-18T15:32:19.007Z,25.70
2023-01-18T15:34:49.137Z,25.70
2023-01-18T15:37:22.275Z,25.70
2023-01-18T15:39:50.545Z,25.70
2023-01-18T15:42:19.624Z,25.70
2023-01-18T15:44:49.980Z,25.70
2023-01-18T15:47:23.555Z,25.70
2023-01-18T15:49:53.766Z,25.70
2023-01-18T15:52:39.887Z,25.70
2023-01-18T15:55:18.154Z,25.70
2023-01-18T15:57:57.964Z,25.70
2023-01-18T16:00:29.648Z,25.70
2023-01-18T16:02:57.582Z,25.70
2023-01-18T16:05:26.953Z,25.70
2023-01-18T16:08:18.501Z,25.70
2023-01-18T16:10:50.104Z,25.70
2023-01-18T16:13:31.945Z,25.70
2023-01-18T16:16:21.982Z,25.70
2023-01-18T16:18:53.193Z,25.70
2023-01-18T16:21:32.726Z,25.70
2023-01-18T16:24:00.774Z,25.70
2023-01-18T16:26:31.448Z,25.70
2023-01-18T16:29:10.236Z,25.70
2023-01-18T16:31:41.641Z,25.70
2023-01-18T16:34:26.970Z,25.70
2023-01-18T16:36:55.113Z,25.70
2023-01-18T16:39:24.045Z,25.70
2023-01-18T16:41:55.188Z,25.70
2023-01-18T16:44:24.154Z,25.70
2023-01-18T16:46:53.868Z,25.70
2023-01-18T16:49:21.578Z,25.70
2023-01-18T16:51:50.623Z,25.60
2023-01-18T16:54:18.712Z,25.60
2023-01-18T16:56:47.481Z,25.60
2023-01-18T16:59:17.243Z,25.60
2023-01-18T17:01:47.071Z,25.60
2023-01-18T17:04:15.201Z,25.60
2023-01-18T17:06:44.353Z,25.60
2023-01-18T17:09:20.209Z,25.60
2023-01-18T17:11:47.983Z,25.50
2023-01-18T17:14:15.804Z,25.50
2023-01-18T17:16:44.956Z,25.50
2023-01-18T17:19:15.602Z,25.50
2023-01-18T17:21:44.742Z,25.50
2023-01-18T17:24:14.172Z,25.50
2023-01-18T17:26:42.615Z,25.40
2023-01-18T17:29:13.531Z,25.40
2023-01-18T17:31:51.341Z,25.40
2023-01-18T17:34:27.474Z,25.40
2023-01-18T17:36:58.657Z,25.40
2023-01-18T17:39:37.443Z,25.30
2023-01-18T17:42:22.329Z,25.30
2023-01-18T17:45:02.360Z,25.30
2023-01-18T17:47:30.308Z,25.30
2023-01-18T17:49:59.551Z,25.30
2023-01-18T17:52:27.317Z,25.30
2023-01-18T17:54:54.952Z,25.20
2023-01-18T17:57:22.547Z,25.20
2023-01-18T17:59:52.946Z,25.20
2023-01-18T18:02:20.727Z,25.20
2023-01-18T18:04:48.481Z,25.20
2023-01-18T18:07:17.922Z,25.20
2023-01-18T18:09:45.563Z,25.20
2023-01-18T18:12:13.388Z,25.20
2023-01-18T18:14:41.332Z,25.20
2023-01-18T18:17:09.458Z,25.20
2023-01-18T18:19:37.178Z,25.20
2023-01-18T18:22:06.035Z,25.10
2023-01-18T18:24:35.091Z,25.10
2023-01-18T18:27:03.079Z,25.20
2023-01-18T18:29:30.728Z,25.10
2023-01-18T18:31:58.461Z,25.10
2023-01-18T18:34:26.185Z,25.10
2023-01-18T18:36:53.826Z,25.10
2023-01-18T18:39:21.571Z,25.10
2023-01-18T18:41:50.681Z,25.10
2023-01-18T18:44:18.296Z,25.10
2023-01-18T18:46:46.039Z,25.10
2023-01-18T18:49:13.694Z,25.10
2023-01-18T18:51:45.023Z,25.10
2023-01-18T18:54:14.532Z,25.10
2023-01-18T18:56:44.123Z,25.10
2023-01-18T18:59:14.765Z,25.10
2023-01-18T19:01:44.314Z,25.10
2023-01-18T19:04:12.067Z,25.10
2023-01-18T19:06:39.967Z,25.10
2023-01-18T19:09:07.904Z,25.10
2023-01-18T19:11:37.680Z,25.10
2023-01-18T19:14:11.230Z,25.10
2023-01-18T19:16:40.989Z,25.10
2023-01-18T19:19:09.314Z,25.10
2023-01-18T19:21:38.713Z,25.20
2023-01-18T19:24:06.867Z,25.20
2023-01-18T19:26:34.671Z,25.10
2023-01-18T19:29:02.538Z,25.20
2023-01-18T19:31:31.561Z,25.20
2023-01-18T19:34:00.769Z,25.20
2023-01-18T19:36:28.516Z,25.20
2023-01-18T19:39:00.228Z,25.20
2023-01-18T19:41:30.319Z,25.20
2023-01-18T19:43:58.037Z,25.20
2023-01-18T19:46:25.753Z,25.20
2023-01-18T19:48:57.325Z,25.10
2023-01-18T19:51:27.412Z,25.10
2023-01-18T19:53:56.028Z,25.10
2023-01-18T19:56:25.819Z,25.10
2023-01-18T19:58:53.671Z,25.10
2023-01-18T20:01:35.329Z,25.10
2023-01-18T20:04:04.395Z,25.10
2023-01-18T20:06:34.912Z,25.10
2023-01-18T20:09:05.418Z,25.10
2023-01-18T20:11:35.137Z,25.10
2023-01-18T20:14:02.971Z,25.10
2023-01-18T20:16:31.536Z,25.10
2023-01-18T20:18:59.362Z,25.10
2023-01-18T20:21:27.767Z,25.10
2023-01-18T20:23:59.393Z,25.10
2023-01-18T20:26:36.715Z,25.10
2023-01-18T20:29:07.771Z,25.10
2023-01-18T20:31:37.296Z,25.10
2023-01-18T20:34:09.003Z,25.10
2023-01-18T20:36:40.989Z,25.10
2023-01-18T20:39:14.319Z,25.10
2023-01-18T20:41:45.775Z,25.10
2023-01-18T20:44:13.899Z,25.20
2023-01-18T20:46:43.208Z,25.20
2023-01-18T20:49:11.843Z,25.20
2023-01-18T20:51:46.861Z,25.20
2023-01-18T20:54:22.579Z,25.20
2023-01-18T20:56:53.755Z,25.20
2023-01-18T20:59:24.678Z,25.20
2023-01-18T21:01:56.676Z,25.20
2023-01-18T21:04:27.446Z,25.20
2023-01-18T21:06:57.681Z,25.20
2023-01-18T21:09:30.144Z,25.20
2023-01-18T21:11:59.046Z,25.20
2023-01-18T21:14:26.758Z,25.20
2023-01-18T21:16:54.545Z,25.20
2023-01-18T21:19:22.546Z,25.30
2023-01-18T21:21:50.162Z,25.20
2023-01-18T21:24:18.175Z,25.30
2023-01-18T21:26:47.199Z,25.30
2023-01-18T21:29:14.851Z,25.30
2023-01-18T21:31:42.550Z,25.30
2023-01-18T21:34:10.266Z,25.30
2023-01-18T21:36:37.917Z,25.30
2023-01-18T21:39:05.606Z,25.30
2023-01-18T21:41:50.898Z,25.30
2023-01-18T21:44:37.648Z,25.30
2023-01-18T21:47:05.413Z,25.30
2023-01-18T21:50:16.154Z,25.30
2023-01-18T21:52:57.168Z,25.30
2023-01-18T21:55:24.890Z,25.30
2023-01-18T21:58:06.514Z,25.30
2023-01-18T22:00:37.668Z,25.30
2023-01-18T22:03:05.474Z,25.30
2023-01-18T22:05:33.569Z,25.30
2023-01-18T22:08:01.677Z,25.30
2023-01-18T22:10:29.520Z,25.30
2023-01-18T22:12:57.137Z,25.30
2023-01-18T22:15:24.868Z,25.30
2023-01-18T22:17:53.898Z,25.30
2023-01-18T22:20:21.533Z,25.30
2023-01-18T22:22:49.506Z,25.30
2023-01-18T22:25:17.228Z,25.30
2023-01-18T22:27:44.852Z,25.30
2023-01-18T22:30:13.731Z,25.30
2023-01-18T22:32:41.382Z,25.30
2023-01-18T22:35:10.820Z,25.30
2023-01-18T22:37:38.470Z,25.20
2023-01-18T22:40:07.597Z,25.30
2023-01-18T22:42:35.853Z,25.20
2023-01-18T22:45:04.804Z,25.20
2023-01-18T22:47:32.471Z,25.20
2023-01-18T22:50:00.148Z,25.20
2023-01-18T22:52:29.197Z,25.20
2023-01-18T22:54:57.009Z,25.20
2023-01-18T22:57:24.668Z,25.20
2023-01-18T22:59:52.313Z,25.20
2023-01-18T23:02:19.931Z,25.20
2023-01-18T23:04:48.368Z,25.10
2023-01-18T23:07:17.422Z,25.10
2023-01-18T23:09:46.460Z,25.10
2023-01-18T23:12:14.084Z,25.10
2023-01-18T23:14:59.540Z,25.10
2023-01-18T23:17:39.490Z,25.00
2023-01-18T23:20:10.286Z,25.00
2023-01-18T23:22:37.975Z,25.00
2023-01-18T23:25:07.613Z,25.00
2023-01-18T23:27:35.238Z,25.00
2023-01-18T23:30:03.403Z,25.00
2023-01-18T23:32:31.553Z,24.90
2023-01-18T23:34:59.931Z,24.90
2023-01-18T23:37:27.922Z,24.90
2023-01-18T23:40:13.061Z,24.90
2023-01-18T23:43:00.196Z,24.90
2023-01-18T23:45:45.269Z,24.80
2023-01-18T23:48:32.073Z,24.80
2023-01-18T23:51:17.170Z,24.80
2023-01-18T23:54:02.854Z,24.80
2023-01-18T23:56:30.820Z,24.70
2023-01-18T23:58:59.953Z,24.70
